createdAt,value
2016-06-29T00:00:17.836Z,1005.77
2016-06-29T00:01:17.829Z,1005.82
2016-06-29T00:02:17.840Z,1005.85
2016-06-29T00:03:17.879Z,1005.87
2016-06-29T00:04:17.871Z,1005.87
2016-06-29T00:05:17.846Z,1005.88
2016-06-29T00:06:17.839Z,1005.87
2016-06-29T00:07:17.842Z,1005.84
2016-06-29T00:08:17.853Z,1005.89
2016-06-29T00:09:17.849Z,1005.92
2016-06-29T00:10:17.868Z,1005.92
2016-06-29T00:11:17.850Z,1005.92
2016-06-29T00:12:17.842Z,1005.91
2016-06-29T00:13:17.850Z,1005.89
2016-06-29T00:14:17.848Z,1005.94
2016-06-29T00:15:17.859Z,1005.91
2016-06-29T00:16:18.058Z,1005.92
2016-06-29T00:17:17.853Z,1005.85
2016-06-29T00:18:17.854Z,1005.83
2016-06-29T00:19:18.065Z,1005.88
2016-06-29T00:20:17.861Z,1005.86
2016-06-29T00:21:17.859Z,1005.78
2016-06-29T00:22:17.858Z,1005.71
2016-06-29T00:23:17.858Z,1005.65
2016-06-29T00:24:17.869Z,1005.63
2016-06-29T00:25:17.873Z,1005.64
2016-06-29T00:26:17.859Z,1005.68
2016-06-29T00:27:17.867Z,1005.73
2016-06-29T00:28:17.866Z,1005.68
2016-06-29T00:29:17.865Z,1005.65
2016-06-29T00:30:17.867Z,1005.59
2016-06-29T00:31:17.876Z,1005.59
2016-06-29T00:32:17.878Z,1005.55
2016-06-29T00:33:18.082Z,1005.55
2016-06-29T00:34:17.880Z,1005.46
2016-06-29T00:35:17.878Z,1005.41
2016-06-29T00:36:17.876Z,1005.37
2016-06-29T00:37:17.878Z,1005.36
2016-06-29T00:38:17.876Z,1005.32
2016-06-29T00:39:17.879Z,1005.2
2016-06-29T00:40:17.890Z,1005.19
2016-06-29T00:41:17.916Z,1005.14
2016-06-29T00:42:17.887Z,1005.09
2016-06-29T00:43:17.887Z,1005.1
2016-06-29T00:44:17.887Z,1005.06
2016-06-29T00:45:17.885Z,1005.06
2016-06-29T00:46:17.894Z,1005.07
2016-06-29T00:47:17.886Z,1005.1
2016-06-29T00:48:17.898Z,1005.13
2016-06-29T00:49:17.894Z,1005.13
2016-06-29T00:50:17.889Z,1005.13
2016-06-29T00:51:17.891Z,1005.09
2016-06-29T00:52:17.894Z,1005.03
2016-06-29T00:53:17.898Z,1005.03
2016-06-29T00:54:18.098Z,1005.02
2016-06-29T00:55:17.899Z,1005.01
2016-06-29T00:56:17.903Z,1004.97
2016-06-29T00:57:17.907Z,1004.97
2016-06-29T00:58:17.907Z,1004.95
2016-06-29T00:59:17.904Z,1004.97
2016-06-29T01:00:17.909Z,1004.98
2016-06-29T01:01:17.910Z,1005
2016-06-29T01:02:17.913Z,1005.07
2016-06-29T01:03:17.910Z,1005.09
2016-06-29T01:04:17.915Z,1005.12
2016-06-29T01:05:17.911Z,1005.1
2016-06-29T01:06:17.914Z,1005.18
2016-06-29T01:07:17.913Z,1005.16
2016-06-29T01:08:17.918Z,1005.15
2016-06-29T01:09:18.115Z,1005.12
2016-06-29T01:10:17.916Z,1005.07
2016-06-29T01:11:17.915Z,1005
2016-06-29T01:12:17.922Z,1005.02
2016-06-29T01:13:17.923Z,1004.96
2016-06-29T01:14:17.923Z,1004.97
2016-06-29T01:15:18.119Z,1004.95
2016-06-29T01:16:17.916Z,1004.95
2016-06-29T01:17:17.924Z,1004.97
2016-06-29T01:18:17.930Z,1005.03
2016-06-29T01:19:17.927Z,1005.01
2016-06-29T01:20:18.130Z,1004.95
2016-06-29T01:21:17.932Z,1004.89
2016-06-29T01:22:17.939Z,1004.84
2016-06-29T01:23:17.932Z,1004.77
2016-06-29T01:24:17.928Z,1004.76
2016-06-29T01:25:17.930Z,1004.73
2016-06-29T01:26:17.947Z,1004.71
2016-06-29T01:27:17.934Z,1004.66
2016-06-29T01:28:17.934Z,1004.69
2016-06-29T01:29:17.942Z,1004.65
2016-06-29T01:30:17.936Z,1004.62
2016-06-29T01:31:17.938Z,1004.6
2016-06-29T01:32:17.938Z,1004.58
2016-06-29T01:33:17.939Z,1004.55
2016-06-29T01:34:17.942Z,1004.49
2016-06-29T01:35:17.944Z,1004.53
2016-06-29T01:36:17.947Z,1004.51
2016-06-29T01:37:17.956Z,1004.5
2016-06-29T01:38:17.942Z,1004.48
2016-06-29T01:39:17.954Z,1004.41
2016-06-29T01:40:17.953Z,1004.36
2016-06-29T01:41:17.953Z,1004.33
2016-06-29T01:42:17.949Z,1004.33
2016-06-29T01:43:17.948Z,1004.33
2016-06-29T01:44:17.951Z,1004.37
2016-06-29T01:45:17.957Z,1004.33
2016-06-29T01:46:17.954Z,1004.37
2016-06-29T01:47:17.957Z,1004.36
2016-06-29T01:48:17.960Z,1004.37
2016-06-29T01:49:17.956Z,1004.38
2016-06-29T01:50:17.959Z,1004.37
2016-06-29T01:51:17.958Z,1004.39
2016-06-29T01:52:17.962Z,1004.43
2016-06-29T01:53:17.963Z,1004.46
2016-06-29T01:54:17.959Z,1004.53
2016-06-29T01:55:17.968Z,1004.55
2016-06-29T01:56:18.165Z,1004.61
2016-06-29T01:57:17.967Z,1004.7
2016-06-29T01:58:17.965Z,1004.68
2016-06-29T01:59:17.969Z,1004.72
2016-06-29T02:00:17.972Z,1004.82
2016-06-29T02:01:17.973Z,1004.82
2016-06-29T02:02:17.969Z,1004.77
2016-06-29T02:03:17.969Z,1004.79
2016-06-29T02:04:17.971Z,1004.75
2016-06-29T02:05:17.978Z,1004.75
2016-06-29T02:06:17.974Z,1004.68
2016-06-29T02:07:17.977Z,1004.66
2016-06-29T02:08:17.979Z,1004.66
2016-06-29T02:09:17.979Z,1004.66
2016-06-29T02:10:17.980Z,1004.67
2016-06-29T02:11:17.977Z,1004.71
2016-06-29T02:12:17.983Z,1004.71
2016-06-29T02:13:17.985Z,1004.74
2016-06-29T02:14:17.979Z,1004.79
2016-06-29T02:15:17.984Z,1004.76
2016-06-29T02:16:17.985Z,1004.77
2016-06-29T02:17:17.983Z,1004.72
2016-06-29T02:18:17.986Z,1004.7
2016-06-29T02:19:17.990Z,1004.73
2016-06-29T02:20:17.992Z,1004.78
2016-06-29T02:21:17.991Z,1004.77
2016-06-29T02:22:17.989Z,1004.77
2016-06-29T02:23:17.996Z,1004.79
2016-06-29T02:24:17.993Z,1004.76
2016-06-29T02:25:17.993Z,1004.79
2016-06-29T02:26:17.998Z,1004.77
2016-06-29T02:27:18.007Z,1004.74
2016-06-29T02:28:17.998Z,1004.73
2016-06-29T02:29:17.994Z,1004.7
2016-06-29T02:30:17.998Z,1004.69
2016-06-29T02:31:18.002Z,1004.74
2016-06-29T02:32:18.003Z,1004.73
2016-06-29T02:33:18.003Z,1004.77
2016-06-29T02:34:18.042Z,1004.73
2016-06-29T02:35:17.999Z,1004.82
2016-06-29T02:36:18.004Z,1004.81
2016-06-29T02:37:18.003Z,1004.83
2016-06-29T02:38:18.012Z,1004.89
2016-06-29T02:39:18.010Z,1004.9
2016-06-29T02:40:18.016Z,1004.94
2016-06-29T02:41:18.006Z,1004.95
2016-06-29T02:42:18.008Z,1004.99
2016-06-29T02:43:18.014Z,1004.97
2016-06-29T02:44:18.010Z,1004.92
2016-06-29T02:45:18.011Z,1004.95
2016-06-29T02:46:18.022Z,1004.99
2016-06-29T02:47:18.019Z,1005
2016-06-29T02:48:18.018Z,1005
2016-06-29T02:49:18.015Z,1005.03
2016-06-29T02:50:18.027Z,1005.04
2016-06-29T02:51:18.018Z,1005.05
2016-06-29T02:52:18.019Z,1005.02
2016-06-29T02:53:18.016Z,1005.02
2016-06-29T02:54:18.019Z,1005.05
2016-06-29T02:55:18.023Z,1005.03
2016-06-29T02:56:18.021Z,1004.99
2016-06-29T02:57:18.025Z,1004.96
2016-06-29T02:58:18.027Z,1004.93
2016-06-29T02:59:18.025Z,1004.9
2016-06-29T03:00:18.029Z,1004.84
2016-06-29T03:01:18.229Z,1004.79
2016-06-29T03:02:18.027Z,1004.81
2016-06-29T03:03:18.030Z,1004.79
2016-06-29T03:04:18.029Z,1004.78
2016-06-29T03:05:18.031Z,1004.75
2016-06-29T03:06:18.235Z,1004.67
2016-06-29T03:07:18.038Z,1004.65
2016-06-29T03:08:18.032Z,1004.61
2016-06-29T03:09:18.033Z,1004.64
2016-06-29T03:10:18.038Z,1004.65
2016-06-29T03:11:18.035Z,1004.72
2016-06-29T03:12:18.038Z,1004.77
2016-06-29T03:13:18.042Z,1004.86
2016-06-29T03:14:18.045Z,1004.88
2016-06-29T03:15:18.039Z,1004.91
2016-06-29T03:16:18.038Z,1004.92
2016-06-29T03:17:18.038Z,1004.89
2016-06-29T03:18:18.037Z,1004.91
2016-06-29T03:19:18.042Z,1004.88
2016-06-29T03:20:18.041Z,1004.92
2016-06-29T03:21:18.046Z,1004.94
2016-06-29T03:22:18.038Z,1004.95
2016-06-29T03:23:18.049Z,1004.97
2016-06-29T03:24:18.048Z,1004.97
2016-06-29T03:25:18.045Z,1005.01
2016-06-29T03:26:18.046Z,1005
2016-06-29T03:27:18.050Z,1005.02
2016-06-29T03:28:18.283Z,1005
2016-06-29T03:29:18.255Z,1005.04
2016-06-29T03:30:18.050Z,1005.04
2016-06-29T03:31:18.051Z,1005.07
2016-06-29T03:32:18.055Z,1005.06
2016-06-29T03:33:18.052Z,1005.04
2016-06-29T03:34:18.254Z,1005.02
2016-06-29T03:35:18.057Z,1005.04
2016-06-29T03:36:18.053Z,1005.04
2016-06-29T03:37:18.054Z,1005.02
2016-06-29T03:38:18.054Z,1005.05
2016-06-29T03:39:18.058Z,1005.02
2016-06-29T03:40:18.058Z,1005.06
2016-06-29T03:41:18.058Z,1005.07
2016-06-29T03:42:18.061Z,1005.07
2016-06-29T03:43:18.059Z,1005.1
2016-06-29T03:44:18.062Z,1005.12
2016-06-29T03:45:18.062Z,1005.13
2016-06-29T03:46:18.059Z,1005.15
2016-06-29T03:47:18.087Z,1005.1
2016-06-29T03:48:18.069Z,1005.07
2016-06-29T03:49:18.068Z,1005.11
2016-06-29T03:50:18.069Z,1005.16
2016-06-29T03:51:18.073Z,1005.15
2016-06-29T03:52:18.078Z,1005.16
2016-06-29T03:53:18.077Z,1005.1
2016-06-29T03:54:18.076Z,1005.14
2016-06-29T03:55:18.094Z,1005.17
2016-06-29T03:56:18.269Z,1005.13
2016-06-29T03:57:18.074Z,1005.08
2016-06-29T03:58:18.072Z,1005.05
2016-06-29T03:59:18.075Z,1004.98
2016-06-29T04:00:18.083Z,1005.04
2016-06-29T04:01:18.079Z,1005.04
2016-06-29T04:02:18.075Z,1005.05
2016-06-29T04:03:18.068Z,1005.1
2016-06-29T04:04:18.076Z,1005.09
2016-06-29T04:05:18.077Z,1005.09
2016-06-29T04:06:18.135Z,1005.12
2016-06-29T04:07:18.078Z,1005.16
2016-06-29T04:08:18.081Z,1005.18
2016-06-29T04:09:18.081Z,1005.23
2016-06-29T04:10:18.079Z,1005.25
2016-06-29T04:11:18.080Z,1005.28
2016-06-29T04:12:18.085Z,1005.29
2016-06-29T04:13:18.081Z,1005.28
2016-06-29T04:14:18.082Z,1005.27
2016-06-29T04:15:18.080Z,1005.25
2016-06-29T04:16:18.088Z,1005.25
2016-06-29T04:17:18.084Z,1005.26
2016-06-29T04:18:18.094Z,1005.23
2016-06-29T04:19:18.088Z,1005.25
2016-06-29T04:20:18.090Z,1005.31
2016-06-29T04:21:18.092Z,1005.3
2016-06-29T04:22:18.095Z,1005.3
2016-06-29T04:23:18.086Z,1005.32
2016-06-29T04:24:18.090Z,1005.33
2016-06-29T04:25:18.297Z,1005.28
2016-06-29T04:26:18.094Z,1005.22
2016-06-29T04:27:18.101Z,1005.33
2016-06-29T04:28:18.098Z,1005.34
2016-06-29T04:29:18.093Z,1005.36
2016-06-29T04:30:18.092Z,1005.36
2016-06-29T04:31:18.091Z,1005.39
2016-06-29T04:32:18.108Z,1005.39
2016-06-29T04:33:18.097Z,1005.4
2016-06-29T04:34:18.093Z,1005.42
2016-06-29T04:35:18.095Z,1005.39
2016-06-29T04:36:18.098Z,1005.46
2016-06-29T04:37:18.095Z,1005.47
2016-06-29T04:38:18.098Z,1005.46
2016-06-29T04:39:18.103Z,1005.45
2016-06-29T04:40:18.100Z,1005.45
2016-06-29T04:41:18.298Z,1005.5
2016-06-29T04:42:18.118Z,1005.47
2016-06-29T04:43:18.103Z,1005.53
2016-06-29T04:44:18.097Z,1005.51
2016-06-29T04:45:18.303Z,1005.49
2016-06-29T04:46:18.106Z,1005.49
2016-06-29T04:47:18.102Z,1005.54
2016-06-29T04:48:18.103Z,1005.56
2016-06-29T04:49:18.101Z,1005.62
2016-06-29T04:50:18.113Z,1005.59
2016-06-29T04:51:18.105Z,1005.6
2016-06-29T04:52:18.103Z,1005.61
2016-06-29T04:53:18.117Z,1005.67
2016-06-29T04:54:18.104Z,1005.69
2016-06-29T04:55:18.109Z,1005.72
2016-06-29T04:56:18.107Z,1005.71
2016-06-29T04:57:18.107Z,1005.73
2016-06-29T04:58:18.116Z,1005.72
2016-06-29T04:59:18.111Z,1005.69
2016-06-29T05:00:18.106Z,1005.67
2016-06-29T05:01:18.112Z,1005.68
2016-06-29T05:02:18.112Z,1005.7
2016-06-29T05:03:18.115Z,1005.74
2016-06-29T05:04:18.114Z,1005.72
2016-06-29T05:05:18.114Z,1005.75
2016-06-29T05:06:18.164Z,1005.77
2016-06-29T05:07:18.138Z,1005.77
2016-06-29T05:08:18.113Z,1005.75
2016-06-29T05:09:18.118Z,1005.74
2016-06-29T05:10:18.111Z,1005.74
2016-06-29T05:11:18.115Z,1005.8
2016-06-29T05:12:18.113Z,1005.77
2016-06-29T05:13:18.114Z,1005.78
2016-06-29T05:14:18.114Z,1005.77
2016-06-29T05:15:18.112Z,1005.79
2016-06-29T05:16:18.121Z,1005.79
2016-06-29T05:17:18.316Z,1005.74
2016-06-29T05:18:18.125Z,1005.76
2016-06-29T05:19:18.127Z,1005.77
2016-06-29T05:20:18.119Z,1005.77
2016-06-29T05:21:18.125Z,1005.76
2016-06-29T05:22:18.116Z,1005.79
2016-06-29T05:23:18.129Z,1005.8
2016-06-29T05:24:18.115Z,1005.78
2016-06-29T05:25:18.119Z,1005.84
2016-06-29T05:26:18.125Z,1005.88
2016-06-29T05:27:18.125Z,1005.88
2016-06-29T05:28:18.115Z,1005.88
2016-06-29T05:29:18.130Z,1005.91
2016-06-29T05:30:18.118Z,1005.93
2016-06-29T05:31:18.138Z,1005.88
2016-06-29T05:32:18.132Z,1005.9
2016-06-29T05:33:18.124Z,1005.92
2016-06-29T05:34:18.125Z,1005.88
2016-06-29T05:35:18.124Z,1005.89
2016-06-29T05:36:18.123Z,1005.9
2016-06-29T05:37:18.119Z,1005.91
2016-06-29T05:38:18.128Z,1005.91
2016-06-29T05:39:18.124Z,1005.85
2016-06-29T05:40:18.128Z,1005.9
2016-06-29T05:41:18.123Z,1005.92
2016-06-29T05:42:18.125Z,1005.88
2016-06-29T05:43:18.128Z,1005.89
2016-06-29T05:44:18.125Z,1005.92
2016-06-29T05:45:18.127Z,1005.91
2016-06-29T05:46:18.124Z,1005.91
2016-06-29T05:47:18.133Z,1005.98
2016-06-29T05:48:18.134Z,1005.98
2016-06-29T05:49:18.131Z,1006.02
2016-06-29T05:50:18.133Z,1006
2016-06-29T05:51:18.128Z,1006.03
2016-06-29T05:52:18.128Z,1006.05
2016-06-29T05:53:18.131Z,1006.06
2016-06-29T05:54:18.140Z,1006.09
2016-06-29T05:55:18.134Z,1006.09
2016-06-29T05:56:18.131Z,1006.1
2016-06-29T05:57:18.135Z,1006.17
2016-06-29T05:58:18.131Z,1006.2
2016-06-29T05:59:18.126Z,1006.24
2016-06-29T06:00:18.136Z,1006.21
2016-06-29T06:01:18.132Z,1006.26
2016-06-29T06:02:18.131Z,1006.22
2016-06-29T06:03:18.129Z,1006.25
2016-06-29T06:04:18.130Z,1006.25
2016-06-29T06:05:18.172Z,1006.23
2016-06-29T06:06:18.131Z,1006.26
2016-06-29T06:07:18.134Z,1006.25
2016-06-29T06:08:18.135Z,1006.25
2016-06-29T06:09:18.134Z,1006.25
2016-06-29T06:10:18.137Z,1006.27
2016-06-29T06:11:18.135Z,1006.26
2016-06-29T06:12:18.342Z,1006.31
2016-06-29T06:13:18.133Z,1006.29
2016-06-29T06:14:18.171Z,1006.26
2016-06-29T06:15:18.135Z,1006.28
2016-06-29T06:16:18.140Z,1006.33
2016-06-29T06:17:18.145Z,1006.29
2016-06-29T06:18:18.138Z,1006.3
2016-06-29T06:19:18.137Z,1006.32
2016-06-29T06:20:18.139Z,1006.37
2016-06-29T06:21:18.135Z,1006.37
2016-06-29T06:22:18.142Z,1006.35
2016-06-29T06:23:18.133Z,1006.37
2016-06-29T06:24:18.146Z,1006.48
2016-06-29T06:25:18.140Z,1006.49
2016-06-29T06:26:18.141Z,1006.45
2016-06-29T06:27:18.139Z,1006.55
2016-06-29T06:28:18.140Z,1006.48
2016-06-29T06:29:18.136Z,1006.53
2016-06-29T06:30:18.136Z,1006.51
2016-06-29T06:31:18.140Z,1006.57
2016-06-29T06:32:18.144Z,1006.54
2016-06-29T06:33:18.140Z,1006.58
2016-06-29T06:34:18.143Z,1006.56
2016-06-29T06:35:18.135Z,1006.51
2016-06-29T06:36:18.138Z,1006.46
2016-06-29T06:37:18.131Z,1006.5
2016-06-29T06:38:18.139Z,1006.49
2016-06-29T06:39:18.136Z,1006.57
2016-06-29T06:40:18.140Z,1006.51
2016-06-29T06:41:18.139Z,1006.55
2016-06-29T06:42:18.144Z,1006.51
2016-06-29T06:43:18.143Z,1006.52
2016-06-29T06:44:18.138Z,1006.49
2016-06-29T06:45:18.143Z,1006.58
2016-06-29T06:46:18.141Z,1006.5
2016-06-29T06:47:18.137Z,1006.52
2016-06-29T06:48:18.139Z,1006.54
2016-06-29T06:49:18.141Z,1006.54
2016-06-29T06:50:18.137Z,1006.58
2016-06-29T06:51:18.141Z,1006.58
2016-06-29T06:52:18.138Z,1006.59
2016-06-29T06:53:18.139Z,1006.54
2016-06-29T06:54:18.145Z,1006.6
2016-06-29T06:55:18.139Z,1006.62
2016-06-29T06:56:18.135Z,1006.59
2016-06-29T06:57:18.139Z,1006.61
2016-06-29T06:58:18.141Z,1006.66
2016-06-29T06:59:18.138Z,1006.62
2016-06-29T07:00:18.137Z,1006.63
2016-06-29T07:01:18.340Z,1006.66
2016-06-29T07:02:18.141Z,1006.69
2016-06-29T07:03:18.140Z,1006.63
2016-06-29T07:04:18.139Z,1006.61
2016-06-29T07:05:18.139Z,1006.63
2016-06-29T07:06:18.141Z,1006.61
2016-06-29T07:07:18.147Z,1006.61
2016-06-29T07:08:18.139Z,1006.6
2016-06-29T07:09:18.140Z,1006.58
2016-06-29T07:10:18.141Z,1006.58
2016-06-29T07:11:18.140Z,1006.62
2016-06-29T07:12:18.172Z,1006.65
2016-06-29T07:13:18.340Z,1006.67
2016-06-29T07:14:18.138Z,1006.6
2016-06-29T07:15:18.140Z,1006.66
2016-06-29T07:16:18.140Z,1006.66
2016-06-29T07:17:18.138Z,1006.63
2016-06-29T07:18:18.142Z,1006.72
2016-06-29T07:19:18.135Z,1006.72
2016-06-29T07:20:18.134Z,1006.78
2016-06-29T07:21:18.134Z,1006.7
2016-06-29T07:22:18.139Z,1006.79
2016-06-29T07:23:18.141Z,1006.77
2016-06-29T07:24:18.137Z,1006.76
2016-06-29T07:25:18.141Z,1006.77
2016-06-29T07:26:18.139Z,1006.81
2016-06-29T07:27:18.134Z,1006.78
2016-06-29T07:28:18.135Z,1006.81
2016-06-29T07:29:18.131Z,1006.79
2016-06-29T07:30:18.138Z,1006.78
2016-06-29T07:31:18.134Z,1006.81
2016-06-29T07:32:18.134Z,1006.79
2016-06-29T07:33:18.135Z,1006.83
2016-06-29T07:34:18.137Z,1006.84
2016-06-29T07:35:18.137Z,1006.82
2016-06-29T07:36:18.137Z,1006.87
2016-06-29T07:37:18.135Z,1006.85
2016-06-29T07:38:18.137Z,1006.87
2016-06-29T07:39:18.133Z,1006.86
2016-06-29T07:40:18.138Z,1006.86
2016-06-29T07:41:18.136Z,1006.84
2016-06-29T07:42:18.127Z,1006.79
2016-06-29T07:43:18.132Z,1006.86
2016-06-29T07:44:18.138Z,1006.84
2016-06-29T07:45:18.139Z,1006.84
2016-06-29T07:46:18.140Z,1006.85
2016-06-29T07:47:18.135Z,1006.84
2016-06-29T07:48:18.345Z,1006.85
2016-06-29T07:49:18.129Z,1006.79
2016-06-29T07:50:18.130Z,1006.84
2016-06-29T07:51:18.132Z,1006.85
2016-06-29T07:52:18.128Z,1006.81
2016-06-29T07:53:18.131Z,1006.81
2016-06-29T07:54:18.131Z,1006.87
2016-06-29T07:55:18.128Z,1006.87
2016-06-29T07:56:18.127Z,1006.81
2016-06-29T07:57:18.135Z,1006.81
2016-06-29T07:58:18.140Z,1006.84
2016-06-29T07:59:18.129Z,1006.85
2016-06-29T08:00:18.133Z,1006.88
2016-06-29T08:01:18.129Z,1006.84
2016-06-29T08:02:18.129Z,1006.8
2016-06-29T08:03:18.130Z,1006.81
2016-06-29T08:04:18.131Z,1006.82
2016-06-29T08:05:18.130Z,1006.86
2016-06-29T08:06:18.149Z,1006.83
2016-06-29T08:07:18.129Z,1006.84
2016-06-29T08:08:18.128Z,1006.84
2016-06-29T08:09:18.122Z,1006.84
2016-06-29T08:10:18.131Z,1006.88
2016-06-29T08:11:18.128Z,1006.91
2016-06-29T08:12:18.128Z,1006.92
2016-06-29T08:13:18.123Z,1006.95
2016-06-29T08:14:18.161Z,1006.95
2016-06-29T08:15:18.130Z,1006.93
2016-06-29T08:16:18.127Z,1006.9
2016-06-29T08:17:18.125Z,1006.97
2016-06-29T08:18:18.123Z,1006.9
2016-06-29T08:19:18.119Z,1006.94
2016-06-29T08:20:18.119Z,1006.89
2016-06-29T08:21:18.124Z,1006.94
2016-06-29T08:22:18.121Z,1006.94
2016-06-29T08:23:18.123Z,1006.93
2016-06-29T08:24:18.125Z,1006.92
2016-06-29T08:25:18.124Z,1006.96
2016-06-29T08:26:18.123Z,1006.99
2016-06-29T08:27:18.126Z,1007.03
2016-06-29T08:28:18.323Z,1007
2016-06-29T08:29:18.125Z,1006.97
2016-06-29T08:30:18.135Z,1006.95
2016-06-29T08:31:18.123Z,1006.98
2016-06-29T08:32:18.118Z,1007.04
2016-06-29T08:33:18.122Z,1007.04
2016-06-29T08:34:18.121Z,1007.05
2016-06-29T08:35:18.122Z,1007.01
2016-06-29T08:36:18.320Z,1007.07
2016-06-29T08:37:18.122Z,1007.06
2016-06-29T08:38:18.115Z,1007.06
2016-06-29T08:39:18.122Z,1007.07
2016-06-29T08:40:18.118Z,1007.03
2016-06-29T08:41:18.119Z,1007.08
2016-06-29T08:42:18.125Z,1007.06
2016-06-29T08:43:18.122Z,1007.09
2016-06-29T08:44:18.113Z,1007.09
2016-06-29T08:45:18.118Z,1007.11
2016-06-29T08:46:18.121Z,1007.06
2016-06-29T08:47:18.127Z,1007.09
2016-06-29T08:48:18.118Z,1007.11
2016-06-29T08:49:18.320Z,1007.06
2016-06-29T08:50:18.116Z,1007.08
2016-06-29T08:51:18.117Z,1007.06
2016-06-29T08:52:18.114Z,1007.06
2016-06-29T08:53:18.116Z,1007.03
2016-06-29T08:54:18.116Z,1007.05
2016-06-29T08:55:18.111Z,1007.11
2016-06-29T08:56:18.110Z,1007.06
2016-06-29T08:57:18.113Z,1007.11
2016-06-29T08:58:18.117Z,1007.06
2016-06-29T08:59:18.112Z,1007.05
2016-06-29T09:00:18.116Z,1007.11
2016-06-29T09:01:18.321Z,1007.09
2016-06-29T09:02:18.119Z,1007.08
2016-06-29T09:03:18.111Z,1007.08
2016-06-29T09:04:18.113Z,1007.07
2016-06-29T09:05:18.312Z,1007.09
2016-06-29T09:06:18.113Z,1007.13
2016-06-29T09:07:18.111Z,1007.13
2016-06-29T09:08:18.115Z,1007.15
2016-06-29T09:09:18.115Z,1007.13
2016-06-29T09:10:18.111Z,1007.17
2016-06-29T09:11:18.106Z,1007.15
2016-06-29T09:12:18.111Z,1007.18
2016-06-29T09:13:18.107Z,1007.26
2016-06-29T09:14:18.106Z,1007.17
2016-06-29T09:15:18.107Z,1007.21
2016-06-29T09:16:18.106Z,1007.17
2016-06-29T09:17:18.112Z,1007.17
2016-06-29T09:18:18.104Z,1007.11
2016-06-29T09:19:18.107Z,1007.13
2016-06-29T09:20:18.102Z,1007.14
2016-06-29T09:21:18.106Z,1007.15
2016-06-29T09:22:18.105Z,1007.19
2016-06-29T09:23:18.106Z,1007.21
2016-06-29T09:24:18.099Z,1007.19
2016-06-29T09:25:18.105Z,1007.13
2016-06-29T09:26:18.304Z,1007.13
2016-06-29T09:27:18.098Z,1007.14
2016-06-29T09:28:18.129Z,1007.27
2016-06-29T09:29:18.097Z,1007.22
2016-06-29T09:30:18.098Z,1007.23
2016-06-29T09:31:18.098Z,1007.2
2016-06-29T09:32:18.106Z,1007.25
2016-06-29T09:33:18.095Z,1007.36
2016-06-29T09:34:18.302Z,1007.37
2016-06-29T09:35:18.094Z,1007.36
2016-06-29T09:36:18.092Z,1007.37
2016-06-29T09:37:18.100Z,1007.44
2016-06-29T09:38:18.099Z,1007.4
2016-06-29T09:39:18.116Z,1007.51
2016-06-29T09:40:18.095Z,1007.46
2016-06-29T09:41:18.091Z,1007.48
2016-06-29T09:42:18.104Z,1007.49
2016-06-29T09:43:18.100Z,1007.42
2016-06-29T09:44:18.090Z,1007.44
2016-06-29T09:45:18.295Z,1007.46
2016-06-29T09:46:18.094Z,1007.5
2016-06-29T09:47:18.091Z,1007.53
2016-06-29T09:48:18.101Z,1007.58
2016-06-29T09:49:18.096Z,1007.47
2016-06-29T09:50:18.099Z,1007.58
2016-06-29T09:51:18.111Z,1007.56
2016-06-29T09:52:18.087Z,1007.57
2016-06-29T09:53:18.078Z,1007.59
2016-06-29T09:54:18.089Z,1007.64
2016-06-29T09:55:18.082Z,1007.59
2016-06-29T09:56:18.086Z,1007.55
2016-06-29T09:57:18.085Z,1007.6
2016-06-29T09:58:18.079Z,1007.7
2016-06-29T09:59:18.080Z,1007.6
2016-06-29T10:00:18.086Z,1007.71
2016-06-29T10:01:18.099Z,1007.74
2016-06-29T10:02:18.284Z,1007.83
2016-06-29T10:03:18.116Z,1007.78
2016-06-29T10:04:18.085Z,1007.84
2016-06-29T10:05:18.083Z,1007.98
2016-06-29T10:06:18.077Z,1007.99
2016-06-29T10:07:18.082Z,1007.96
2016-06-29T10:08:18.080Z,1007.97
2016-06-29T10:09:18.078Z,1007.97
2016-06-29T10:10:18.077Z,1007.98
2016-06-29T10:11:18.078Z,1008
2016-06-29T10:12:18.113Z,1008.04
2016-06-29T10:13:18.272Z,1008.01
2016-06-29T10:14:18.076Z,1008.06
2016-06-29T10:15:18.070Z,1007.98
2016-06-29T10:16:18.073Z,1008
2016-06-29T10:17:18.073Z,1008.03
2016-06-29T10:18:18.070Z,1007.97
2016-06-29T10:19:18.072Z,1008
2016-06-29T10:20:18.071Z,1007.97
2016-06-29T10:21:18.074Z,1007.97
2016-06-29T10:22:18.067Z,1007.96
2016-06-29T10:23:18.067Z,1008.01
2016-06-29T10:24:18.070Z,1007.97
2016-06-29T10:25:18.074Z,1008.03
2016-06-29T10:26:18.077Z,1008
2016-06-29T10:27:18.069Z,1007.99
2016-06-29T10:28:18.062Z,1007.99
2016-06-29T10:29:18.061Z,1008
2016-06-29T10:30:18.262Z,1008.04
2016-06-29T10:31:18.062Z,1007.97
2016-06-29T10:32:18.063Z,1008.02
2016-06-29T10:33:18.062Z,1008.01
2016-06-29T10:34:18.062Z,1008.01
2016-06-29T10:35:18.066Z,1008.02
2016-06-29T10:36:18.083Z,1007.95
2016-06-29T10:37:18.071Z,1007.94
2016-06-29T10:38:18.059Z,1007.99
2016-06-29T10:39:18.067Z,1008.01
2016-06-29T10:40:18.062Z,1007.99
2016-06-29T10:41:18.061Z,1007.95
2016-06-29T10:42:18.069Z,1007.91
2016-06-29T10:43:18.062Z,1007.92
2016-06-29T10:44:18.057Z,1007.92
2016-06-29T10:45:18.057Z,1007.91
2016-06-29T10:46:18.050Z,1007.92
2016-06-29T10:47:18.049Z,1007.91
2016-06-29T10:48:18.056Z,1007.91
2016-06-29T10:49:18.051Z,1007.86
2016-06-29T10:50:18.058Z,1007.86
2016-06-29T10:51:18.051Z,1007.79
2016-06-29T10:52:18.049Z,1007.82
2016-06-29T10:53:18.054Z,1007.8
2016-06-29T10:54:18.047Z,1007.83
2016-06-29T10:55:18.046Z,1007.79
2016-06-29T10:56:18.042Z,1007.79
2016-06-29T10:57:18.047Z,1007.79
2016-06-29T10:58:18.051Z,1007.72
2016-06-29T10:59:18.053Z,1007.74
2016-06-29T11:00:18.247Z,1007.77
2016-06-29T11:01:18.045Z,1007.78
2016-06-29T11:02:18.045Z,1007.78
2016-06-29T11:03:18.054Z,1007.74
2016-06-29T11:04:18.059Z,1007.77
2016-06-29T11:05:18.042Z,1007.73
2016-06-29T11:06:18.046Z,1007.74
2016-06-29T11:07:18.047Z,1007.79
2016-06-29T11:08:18.044Z,1007.75
2016-06-29T11:09:18.041Z,1007.74
2016-06-29T11:10:18.042Z,1007.78
2016-06-29T11:11:18.047Z,1007.78
2016-06-29T11:12:18.042Z,1007.75
2016-06-29T11:13:18.046Z,1007.76
2016-06-29T11:14:18.042Z,1007.72
2016-06-29T11:15:18.047Z,1007.77
2016-06-29T11:16:18.034Z,1007.67
2016-06-29T11:17:18.041Z,1007.75
2016-06-29T11:18:18.039Z,1007.72
2016-06-29T11:19:18.243Z,1007.77
2016-06-29T11:20:18.035Z,1007.81
2016-06-29T11:21:18.042Z,1007.8
2016-06-29T11:22:18.044Z,1007.82
2016-06-29T11:23:18.053Z,1007.77
2016-06-29T11:24:18.043Z,1007.78
2016-06-29T11:25:18.034Z,1007.79
2016-06-29T11:26:18.032Z,1007.75
2016-06-29T11:27:18.237Z,1007.78
2016-06-29T11:28:18.037Z,1007.75
2016-06-29T11:29:18.039Z,1007.72
2016-06-29T11:30:18.035Z,1007.74
2016-06-29T11:31:18.038Z,1007.88
2016-06-29T11:32:18.035Z,1007.75
2016-06-29T11:33:18.043Z,1007.76
2016-06-29T11:34:18.037Z,1007.8
2016-06-29T11:35:18.034Z,1007.81
2016-06-29T11:36:18.035Z,1007.79
2016-06-29T11:37:18.031Z,1007.79
2016-06-29T11:38:18.034Z,1007.76
2016-06-29T11:39:18.039Z,1007.74
2016-06-29T11:40:18.033Z,1007.75
2016-06-29T11:41:18.027Z,1007.73
2016-06-29T11:42:18.034Z,1007.82
2016-06-29T11:43:18.033Z,1007.79
2016-06-29T11:44:18.029Z,1007.74
2016-06-29T11:45:18.033Z,1007.77
2016-06-29T11:46:18.036Z,1007.75
2016-06-29T11:47:18.038Z,1007.82
2016-06-29T11:48:18.030Z,1007.82
2016-06-29T11:49:18.035Z,1007.81
2016-06-29T11:50:18.032Z,1007.79
2016-06-29T11:51:18.023Z,1007.75
2016-06-29T11:52:18.025Z,1007.81
2016-06-29T11:53:18.022Z,1007.77
2016-06-29T11:54:18.022Z,1007.79
2016-06-29T11:55:18.225Z,1007.79
2016-06-29T11:56:18.035Z,1007.79
2016-06-29T11:57:18.024Z,1007.78
2016-06-29T11:58:18.035Z,1007.85
2016-06-29T11:59:18.021Z,1007.81
2016-06-29T12:00:18.023Z,1007.79
2016-06-29T12:01:18.037Z,1007.87
2016-06-29T12:02:18.063Z,1007.83
2016-06-29T12:03:18.018Z,1007.87
2016-06-29T12:04:18.023Z,1007.83
2016-06-29T12:05:18.031Z,1007.87
2016-06-29T12:06:18.016Z,1007.87
2016-06-29T12:07:18.022Z,1007.86
2016-06-29T12:08:18.024Z,1007.85